MiSS Sarah — WDE9595 — position and weather

sailwx.info

Track history (hours):
 
Tides and Currents Weather Stations Pressure Air Temp Water Temp Dewpoint Dewpoint Depression Visibility Wind Speed Wind Dir Waves Ship Positions

MiSS Sarah

Owner: Higman Barge Lines, Inc, Orange, TX. More information available from US FCC via Universal Licensing System and Coast Guard Vessel Documentation Center.

Last reported at 2014-Sep-30 15:17 UTC. Time now 2014-Oct-02 14:30 UTC.
Position N 29°45' W 091°35'.

Length 24 m; draft 2.6 m.

Type: Towing. MMSI: 367419040.

Date/timePositionNaut miles runAvg speedWind from/ knotsBaromVisibWave heightAir tempDewpointWater temp
2014-Sep-30 15:17N 29°45' W 091°35'5 6.7
2014-Sep-30 14:33N 29°42' W 091°31'7 6.9
2014-Sep-30 13:33N 29°39' W 091°24'7 6.6
2014-Sep-30 12:33N 29°39' W 091°16'6 6.3
2014-Sep-30 11:33N 29°44' W 091°11'6 5.5
2014-Sep-30 10:33N 29°49' W 091°10'6 5.4
2014-Sep-30 09:32N 29°54' W 091°13'5 5.0
2014-Sep-30 08:33N 29°58' W 091°16'  
2014-Sep-24 14:15N 29°53' W 091°13'4 5.0
2014-Sep-24 13:32N 29°50' W 091°11'5 5.6
2014-Sep-24 12:33N 29°44' W 091°11'5 5.0
2014-Sep-24 11:33N 29°40' W 091°14'6 5.9
2014-Sep-24 10:33N 29°38' W 091°20'6 6.0
2014-Sep-24 09:33N 29°40' W 091°27'6 5.3
2014-Sep-24 08:28N 29°43' W 091°33'  
Track history (hours):
 
Tides and Currents Weather Stations Pressure Air Temp Water Temp Dewpoint Dewpoint Depression Visibility Wind Speed Wind Dir Waves Ship Positions

MiSS Sarah

Owner: Higman Barge Lines, Inc, Orange, TX. More information available from US FCC via Universal Licensing System and Coast Guard Vessel Documentation Center.

Last reported at 2014-Sep-30 15:17 UTC. Time now 2014-Oct-02 14:30 UTC.
Position N 29°45' W 091°35'.

Length 24 m; draft 2.6 m.

Type: Towing. MMSI: 367419040.

Date/timePositionNaut miles runAvg speedWind from/ knotsBaromVisibWave heightAir tempDewpointWater temp
2014-Sep-30 15:17N 29°45' W 091°35'5 6.7
2014-Sep-30 14:33N 29°42' W 091°31'7 6.9
2014-Sep-30 13:33N 29°39' W 091°24'7 6.6
2014-Sep-30 12:33N 29°39' W 091°16'6 6.3
2014-Sep-30 11:33N 29°44' W 091°11'6 5.5
2014-Sep-30 10:33N 29°49' W 091°10'6 5.4
2014-Sep-30 09:32N 29°54' W 091°13'5 5.0
2014-Sep-30 08:33N 29°58' W 091°16'  
2014-Sep-24 14:15N 29°53' W 091°13'4 5.0
2014-Sep-24 13:32N 29°50' W 091°11'5 5.6
2014-Sep-24 12:33N 29°44' W 091°11'5 5.0
2014-Sep-24 11:33N 29°40' W 091°14'6 5.9
2014-Sep-24 10:33N 29°38' W 091°20'6 6.0
2014-Sep-24 09:33N 29°40' W 091°27'6 5.3
2014-Sep-24 08:28N 29°43' W 091°33'  

Dump ship's entire track history